Briefing drone pour Montluel

Rechercher une autre localisation

Conditions de vol :


Nous sommes le : Lundi 01 mars 2021
Il est 18:38 UTC (19:38 LT)

Lever de soleil : 05:51 UTC (06:51 LT)
Coucher de soleil : 17:52 UTC (18:52 LT)

Météo

L'essentiel des conditions de vol

VIGILANCE MÉTÉO FRANCE - Ain (01)
Pas de vigilances particulieres
METAR de LFLL
LFLL 011830Z 15006KT CAVOK 14/04 Q1027 NOSIG

Date d'émission: 01/03/2021
Heure d'émission: 18:30 UTC
Vent: 150° pour 6 KT (11 km/h)
Visibilité horizontale: > 10 km
Plafond : Plafond et visibilité OK (CAVOK)
Température: 14 °C
Point de rosée: 4 °C
Humidité: 51%
Pression (QNH): 1027 hPa
Conditions: Pas de changement dans les 2 heures (NOSIG)
TAF de LFLL
LFLL 011700Z 0118/0224 14006KT CAVOK

Conditions prévues :

Heure d'émission : Bulletin éffectué le 01 à 18:00 UTC
Prévision : Valide du 01 a 18:00 UTC au 02 a 23:59 UTC
Vent : 140° pour 6 KT (11 km/h)
Visibilité : > 10 km
WEBCAM POUR MONTLUEL

Réglementation

Voler en sécurité

CARTES AERONAUTIQUE 1/500.000
CARTES VAC (LFLL)
SUP AIP




Chargement des AIP...
NOTAM (MONTLUEL + Terrain à proximité / FIR )




Chargement des NOTAMS...
CONTACT PREFECTURE 01


Avertissement : Les données mises à disposition sont indicatives. Oxygène Drone ne pourra être tenu responsable de dégâts causés aux biens et aux personnes.